createdAt,value
2022-11-04T00:00:53.747Z,98785.56
2022-11-04T00:03:29.835Z,98793.50
2022-11-04T00:06:01.420Z,98794.47
2022-11-04T00:08:29.809Z,98798.09
2022-11-04T00:11:46.437Z,98783.88
2022-11-04T00:14:22.732Z,98775.78
2022-11-04T00:17:09.552Z,98767.84
2022-11-04T00:20:17.183Z,98762.84
2022-11-04T00:23:07.188Z,98750.41
2022-11-04T00:25:52.828Z,98761.16
2022-11-04T00:28:38.704Z,98755.31
2022-11-04T00:31:25.491Z,98763.09
2022-11-04T00:33:53.411Z,98751.41
2022-11-04T00:36:20.686Z,98746.81
2022-11-04T00:38:47.188Z,98741.50
2022-11-04T00:41:26.236Z,98744.00
2022-11-04T00:43:58.844Z,98748.03
2022-11-04T00:46:26.507Z,98758.78
2022-11-04T00:48:53.023Z,98770.34
2022-11-04T00:51:21.278Z,98772.03
2022-11-04T00:53:48.183Z,98771.47
2022-11-04T00:56:14.589Z,98780.13
2022-11-04T00:58:41.031Z,98783.06
2022-11-04T01:01:11.837Z,98778.72
2022-11-04T01:03:38.773Z,98789.47
2022-11-04T01:06:05.346Z,98796.16
2022-11-04T01:08:31.994Z,98791.97
2022-11-04T01:11:02.147Z,98800.06
2022-11-04T01:13:28.664Z,98803.41
2022-11-04T01:15:58.423Z,98802.72
2022-11-04T01:18:24.935Z,98813.16
2022-11-04T01:20:51.332Z,98817.91
2022-11-04T01:23:17.776Z,98819.72
2022-11-04T01:25:45.880Z,98818.59
2022-11-04T01:28:12.454Z,98821.25
2022-11-04T01:30:39.263Z,98824.03
2022-11-04T01:33:05.763Z,98818.72
2022-11-04T01:35:32.509Z,98822.22
2022-11-04T01:37:59.146Z,98826.81
2022-11-04T01:40:25.558Z,98822.63
2022-11-04T01:42:52.019Z,98828.88
2022-11-04T01:45:20.116Z,98822.06
2022-11-04T01:48:01.851Z,98832.09
2022-11-04T01:50:30.679Z,98843.53
2022-11-04T01:53:00.810Z,98827.78
2022-11-04T01:55:30.149Z,98821.63
2022-11-04T01:57:56.822Z,98832.09
2022-11-04T02:00:23.287Z,98823.59
2022-11-04T02:03:06.742Z,98822.88
2022-11-04T02:05:33.476Z,98825.94
2022-11-04T02:08:02.739Z,98831.25
2022-11-04T02:10:29.861Z,98850.91
2022-11-04T02:12:57.414Z,98841.28
2022-11-04T02:15:56.200Z,98832.63
2022-11-04T02:18:31.493Z,98839.63
2022-11-04T02:20:58.109Z,98845.59
2022-11-04T02:23:59.023Z,98853.69
2022-11-04T02:26:52.569Z,98858.25
2022-11-04T02:29:51.520Z,98860.91
2022-11-04T02:32:39.091Z,98853.25
2022-11-04T02:35:09.763Z,98866.63
2022-11-04T02:37:50.414Z,98869.81
2022-11-04T02:40:35.434Z,98871.72
2022-11-04T02:43:25.503Z,98873.69
2022-11-04T02:46:04.279Z,98871.06
2022-11-04T02:48:47.004Z,98870.34
2022-11-04T02:51:25.871Z,98870.47
2022-11-04T02:53:54.577Z,98870.34
2022-11-04T02:56:22.270Z,98869.63
2022-11-04T02:59:02.677Z,98857.63
2022-11-04T03:01:32.249Z,98861.00
2022-11-04T03:04:09.097Z,98860.28
2022-11-04T03:06:36.435Z,98871.13
2022-11-04T03:09:04.200Z,98871.28
2022-11-04T03:11:31.110Z,98866.66
2022-11-04T03:14:01.497Z,98865.72
2022-11-04T03:16:44.287Z,98891.91
2022-11-04T03:19:40.094Z,98915.16
2022-11-04T03:22:13.180Z,98900.50
2022-11-04T03:24:39.946Z,98883.94
2022-11-04T03:27:18.848Z,98892.13
2022-11-04T03:30:09.357Z,98906.72
2022-11-04T03:32:42.040Z,98905.63
2022-11-04T03:35:09.162Z,98896.38
2022-11-04T03:37:35.934Z,98929.56
2022-11-04T03:40:02.942Z,98917.44
2022-11-04T03:42:30.708Z,98914.91
2022-11-04T03:44:57.508Z,98909.75
2022-11-04T03:47:26.617Z,98918.53
2022-11-04T03:50:05.605Z,98922.41
2022-11-04T03:52:32.027Z,98927.22
2022-11-04T03:54:58.544Z,98928.19
2022-11-04T03:57:46.112Z,98919.69
2022-11-04T04:00:14.405Z,98915.50
2022-11-04T04:02:49.767Z,98920.78
2022-11-04T04:05:30.396Z,98922.25
2022-11-04T04:08:03.865Z,98920.25
2022-11-04T04:10:39.557Z,98900.00
2022-11-04T04:13:32.240Z,98903.47
2022-11-04T04:16:10.826Z,98915.50
2022-11-04T04:18:54.010Z,98923.84
2022-11-04T04:21:29.479Z,98917.09
2022-11-04T04:24:26.100Z,98917.97
2022-11-04T04:27:11.699Z,98917.97
2022-11-04T04:29:38.413Z,98921.19
2022-11-04T04:32:05.491Z,98912.69
2022-11-04T04:34:32.871Z,98914.47
2022-11-04T04:37:08.603Z,98915.56
2022-11-04T04:40:10.727Z,98920.75
2022-11-04T04:42:56.826Z,98913.91
2022-11-04T04:45:36.275Z,98904.44
2022-11-04T04:48:03.304Z,98889.19
2022-11-04T04:50:36.210Z,98885.97
2022-11-04T04:53:04.124Z,98892.22
2022-11-04T04:55:31.612Z,98887.88
2022-11-04T04:57:58.680Z,98879.22
2022-11-04T05:00:25.437Z,98876.59
2022-11-04T05:02:51.855Z,98871.31
2022-11-04T05:05:19.121Z,98869.16
2022-11-04T05:07:45.526Z,98878.72
2022-11-04T05:10:13.823Z,98871.53
2022-11-04T05:12:59.478Z,98876.69
2022-11-04T05:15:26.817Z,98887.50
2022-11-04T05:17:57.608Z,98883.06
2022-11-04T05:20:24.638Z,98895.56
2022-11-04T05:22:51.293Z,98894.50
2022-11-04T05:25:18.181Z,98896.28
2022-11-04T05:27:44.610Z,98897.13
2022-11-04T05:30:11.561Z,98883.66
2022-11-04T05:32:38.155Z,98869.72
2022-11-04T05:35:04.887Z,98876.69
2022-11-04T05:37:31.318Z,98874.75
2022-11-04T05:39:57.790Z,98876.91
2022-11-04T05:42:24.233Z,98880.00
2022-11-04T05:44:50.676Z,98886.56
2022-11-04T05:47:17.090Z,98889.22
2022-11-04T05:49:43.498Z,98884.88
2022-11-04T05:52:10.179Z,98881.28
2022-11-04T05:54:38.548Z,98886.31
2022-11-04T05:57:05.408Z,98878.25
2022-11-04T05:59:31.936Z,98872.38
2022-11-04T06:01:58.572Z,98873.94
2022-11-04T06:04:25.065Z,98870.97
2022-11-04T06:06:51.523Z,98869.41
2022-11-04T06:09:18.088Z,98865.22
2022-11-04T06:11:45.278Z,98862.03
2022-11-04T06:14:17.505Z,98867.34
2022-11-04T06:16:45.091Z,98867.09
2022-11-04T06:19:15.105Z,98869.47
2022-11-04T06:21:42.714Z,98866.59
2022-11-04T06:24:09.131Z,98875.34
2022-11-04T06:26:35.556Z,98882.06
2022-11-04T06:29:02.168Z,98883.03
2022-11-04T06:31:28.599Z,98878.56
2022-11-04T06:33:54.986Z,98898.63
2022-11-04T06:36:21.517Z,98893.34
2022-11-04T06:38:47.965Z,98882.91
2022-11-04T06:41:16.614Z,98888.88
2022-11-04T06:43:43.184Z,98886.13
2022-11-04T06:46:29.192Z,98891.81
2022-11-04T06:48:56.356Z,98898.91
2022-11-04T06:51:23.568Z,98898.06
2022-11-04T06:53:50.003Z,98889.16
2022-11-04T06:56:16.519Z,98887.78
2022-11-04T06:58:42.950Z,98906.75
2022-11-04T07:01:15.915Z,98898.56
2022-11-04T07:03:49.047Z,98904.69
2022-11-04T07:06:15.431Z,98904.00
2022-11-04T07:08:41.880Z,98898.94
2022-11-04T07:11:08.306Z,98892.56
2022-11-04T07:13:34.719Z,98901.34
2022-11-04T07:16:04.529Z,98904.47
2022-11-04T07:18:30.925Z,98906.00
2022-11-04T07:20:58.347Z,98916.19
2022-11-04T07:23:25.044Z,98918.38
2022-11-04T07:25:51.447Z,98915.50
2022-11-04T07:28:17.854Z,98937.34
2022-11-04T07:30:44.225Z,98938.44
2022-11-04T07:33:10.668Z,98929.41
2022-11-04T07:35:37.222Z,98930.94
2022-11-04T07:38:03.998Z,98950.91
2022-11-04T07:40:34.259Z,98945.53
2022-11-04T07:43:01.481Z,98947.19
2022-11-04T07:45:36.102Z,98954.72
2022-11-04T07:48:02.504Z,98954.50
2022-11-04T07:50:28.945Z,98949.88
2022-11-04T07:52:55.412Z,98954.81
2022-11-04T07:55:22.022Z,98950.34
2022-11-04T07:57:48.679Z,98953.56
2022-11-04T08:00:16.415Z,98956.09
2022-11-04T08:02:46.852Z,98947.56
2022-11-04T08:05:14.474Z,98944.66
2022-11-04T08:07:40.976Z,98940.19
2022-11-04T08:10:08.065Z,98934.31
2022-11-04T08:12:34.462Z,98946.88
2022-11-04T08:15:00.854Z,98935.31
2022-11-04T08:17:27.262Z,98934.22
2022-11-04T08:19:53.649Z,98924.75
2022-11-04T08:22:20.058Z,98929.09
2022-11-04T08:24:47.233Z,98915.63
2022-11-04T08:27:14.082Z,98921.47
2022-11-04T08:29:40.512Z,98920.63
2022-11-04T08:32:07.780Z,98912.69
2022-11-04T08:34:34.442Z,98916.75
2022-11-04T08:37:00.899Z,98913.84
2022-11-04T08:39:27.282Z,98919.44
2022-11-04T08:41:53.859Z,98918.59
2022-11-04T08:44:20.557Z,98926.13
2022-11-04T08:46:47.515Z,98920.31
2022-11-04T08:49:19.637Z,98922.81
2022-11-04T08:51:49.500Z,98918.53
2022-11-04T08:54:16.100Z,98917.88
2022-11-04T08:56:42.674Z,98924.84
2022-11-04T08:59:10.516Z,98921.34
2022-11-04T09:01:37.573Z,98930.84
2022-11-04T09:04:05.531Z,98928.38
2022-11-04T09:06:35.819Z,98921.00
2022-11-04T09:09:04.615Z,98939.97
2022-11-04T09:11:37.495Z,98940.94
2022-11-04T09:14:04.275Z,98934.91
2022-11-04T09:16:32.470Z,98938.72
2022-11-04T09:18:59.397Z,98934.00
2022-11-04T09:21:26.634Z,98939.44
2022-11-04T09:23:53.490Z,98929.66
2022-11-04T09:26:20.758Z,98941.13
2022-11-04T09:28:47.146Z,98947.56
2022-11-04T09:31:16.971Z,98941.81
2022-11-04T09:33:43.854Z,98940.31
2022-11-04T09:36:11.069Z,98941.13
2022-11-04T09:38:38.921Z,98941.28
2022-11-04T09:41:47.139Z,98946.72
2022-11-04T09:44:22.755Z,98948.25
2022-11-04T09:46:49.939Z,98956.63
2022-11-04T09:49:19.217Z,98966.84
2022-11-04T09:51:55.392Z,98970.75
2022-11-04T09:54:26.541Z,98967.53
2022-11-04T09:56:54.483Z,98971.22
2022-11-04T09:59:25.921Z,98967.44
2022-11-04T10:02:20.707Z,98972.72
2022-11-04T10:04:53.019Z,98985.19
2022-11-04T10:07:52.480Z,98989.53
2022-11-04T10:10:25.623Z,98984.34
2022-11-04T10:12:51.914Z,98978.75
2022-11-04T10:15:29.682Z,98975.97
2022-11-04T10:18:02.462Z,98978.31
2022-11-04T10:20:50.097Z,98984.03
2022-11-04T10:23:22.753Z,98975.00
2022-11-04T10:26:01.209Z,98970.81
2022-11-04T10:28:35.997Z,98965.06
2022-11-04T10:31:03.911Z,98960.72
2022-11-04T10:33:33.723Z,98965.19
2022-11-04T10:36:03.427Z,98962.25
2022-11-04T10:38:52.223Z,98958.22
2022-11-04T10:41:26.343Z,98959.44
2022-11-04T10:43:56.547Z,98955.97
2022-11-04T10:46:44.333Z,98957.75
2022-11-04T10:49:19.758Z,98943.97
2022-11-04T10:51:46.160Z,98948.16
2022-11-04T10:54:12.637Z,98948.00
2022-11-04T10:56:45.286Z,98942.28
2022-11-04T10:59:31.625Z,98942.44
2022-11-04T11:02:00.208Z,98937.94
2022-11-04T11:04:33.173Z,98942.44
2022-11-04T11:07:02.167Z,98934.16
2022-11-04T11:09:30.555Z,98942.38
2022-11-04T11:12:02.194Z,98940.84
2022-11-04T11:14:28.466Z,98934.16
2022-11-04T11:16:55.732Z,98939.72
2022-11-04T11:19:24.987Z,98938.34
2022-11-04T11:21:54.409Z,98933.44
2022-11-04T11:24:29.688Z,98932.59
2022-11-04T11:26:57.636Z,98927.66
2022-11-04T11:29:30.352Z,98928.38
2022-11-04T11:31:57.976Z,98931.72
2022-11-04T11:34:28.518Z,98934.09
2022-11-04T11:36:56.490Z,98934.25
2022-11-04T11:39:27.924Z,98935.22
2022-11-04T11:42:00.784Z,98927.41
2022-11-04T11:44:49.933Z,98930.38
2022-11-04T11:47:23.199Z,98927.31
2022-11-04T11:50:18.967Z,98925.78
2022-11-04T11:52:46.607Z,98923.81
2022-11-04T11:55:17.601Z,98927.31
2022-11-04T12:01:16.580Z,98919.19
2022-11-04T12:10:52.011Z,98911.34
2022-11-04T12:13:30.560Z,98911.06
2022-11-04T12:16:28.242Z,98906.19
2022-11-04T12:19:00.681Z,98914.16
2022-11-04T12:21:33.409Z,98909.16
2022-11-04T12:24:07.724Z,98909.56
2022-11-04T12:26:53.245Z,98906.06
2022-11-04T12:29:50.334Z,98902.88
2022-11-04T12:32:39.111Z,98907.72
2022-11-04T12:35:29.092Z,98911.22
2022-11-04T12:38:21.832Z,98900.47
2022-11-04T12:41:27.671Z,98908.84
2022-11-04T12:43:54.886Z,98915.88
2022-11-04T12:46:47.397Z,98912.38
2022-11-04T12:49:43.681Z,98920.91
2022-11-04T12:53:15.702Z,98921.03
2022-11-04T12:56:05.964Z,98928.31
2022-11-04T12:58:48.768Z,98925.50
2022-11-04T13:01:19.528Z,98926.63
2022-11-04T13:03:52.517Z,98933.06
2022-11-04T13:06:49.266Z,98937.38
2022-11-04T13:09:39.347Z,98933.75
2022-11-04T13:12:12.011Z,98936.00
2022-11-04T13:14:52.595Z,98933.66
2022-11-04T13:17:29.534Z,98933.09
2022-11-04T13:19:59.078Z,98943.69
2022-11-04T13:22:29.277Z,98942.59
2022-11-04T13:25:00.293Z,98952.50
2022-11-04T13:27:38.271Z,98954.31
2022-11-04T13:30:27.606Z,98957.38
2022-11-04T13:33:09.226Z,98961.03
2022-11-04T13:36:01.877Z,98954.31
2022-11-04T13:38:31.202Z,98967.44
2022-11-04T13:41:11.403Z,98968.28
2022-11-04T13:43:46.637Z,98974.84
2022-11-04T13:46:12.908Z,98972.59
2022-11-04T13:48:51.363Z,98989.09
2022-11-04T13:51:19.113Z,98976.38
2022-11-04T13:53:47.636Z,98980.84
2022-11-04T13:56:34.300Z,98984.75
2022-11-04T13:59:17.748Z,98987.97
2022-11-04T14:01:44.282Z,99000.53
2022-11-04T14:04:13.635Z,99002.66
2022-11-04T14:06:59.072Z,98998.31
2022-11-04T14:09:43.898Z,99009.19
2022-11-04T14:12:10.200Z,99008.34
2022-11-04T14:14:41.766Z,99025.28
2022-11-04T14:17:46.468Z,99016.03
2022-11-04T14:20:24.605Z,99011.56
2022-11-04T14:22:56.231Z,99006.81
2022-11-04T14:25:34.721Z,99013.09
2022-11-04T14:28:15.855Z,99012.81
2022-11-04T14:30:53.649Z,99015.47
2022-11-04T14:33:31.398Z,99025.94
2022-11-04T14:36:14.526Z,99026.81
2022-11-04T14:38:41.357Z,99015.47
2022-11-04T14:41:30.203Z,99022.06
2022-11-04T14:44:00.800Z,99026.50
2022-11-04T14:46:31.166Z,99030.59
2022-11-04T14:49:01.031Z,99026.66
2022-11-04T14:51:32.385Z,99025.25
2022-11-04T14:54:08.302Z,99032.38
2022-11-04T14:56:34.743Z,99025.25
2022-11-04T14:59:06.795Z,99032.69
2022-11-04T15:01:35.689Z,99035.59
2022-11-04T15:04:14.722Z,99043.41
2022-11-04T15:06:54.383Z,99043.31
2022-11-04T15:09:41.129Z,99042.59
2022-11-04T15:12:28.890Z,99041.47
2022-11-04T15:14:55.886Z,99046.22
2022-11-04T15:17:25.342Z,99049.00
2022-11-04T15:19:54.386Z,99047.63
2022-11-04T15:22:20.823Z,99047.31
2022-11-04T15:24:47.331Z,99054.03
2022-11-04T15:27:16.946Z,99054.88
2022-11-04T15:29:54.621Z,99067.97
2022-11-04T15:32:21.135Z,99061.78
2022-11-04T15:34:47.816Z,99063.44
2022-11-04T15:37:14.390Z,99063.00
2022-11-04T15:39:43.760Z,99071.38
2022-11-04T15:42:40.182Z,99075.38
2022-11-04T15:45:22.206Z,99085.56
2022-11-04T15:47:48.672Z,99087.53
2022-11-04T15:50:19.631Z,99082.59
2022-11-04T15:52:47.991Z,99088.06
2022-11-04T15:55:19.023Z,99087.34
2022-11-04T15:57:45.361Z,99092.78
2022-11-04T16:00:14.487Z,99093.75
2022-11-04T16:02:47.502Z,99096.66
2022-11-04T16:05:17.014Z,99097.34
2022-11-04T16:07:44.022Z,99096.16
2022-11-04T16:10:32.471Z,99108.16
2022-11-04T16:12:58.711Z,99107.69
2022-11-04T16:15:31.203Z,99116.16
2022-11-04T16:17:57.543Z,99120.16
2022-11-04T16:20:24.941Z,99115.13
2022-11-04T16:22:55.575Z,99124.88
2022-11-04T16:25:22.287Z,99122.34
2022-11-04T16:27:48.795Z,99121.78
2022-11-04T16:30:19.059Z,99121.44
2022-11-04T16:32:48.529Z,99129.91
2022-11-04T16:35:19.393Z,99128.84
2022-11-04T16:37:45.941Z,99140.69
2022-11-04T16:40:12.481Z,99133.69
2022-11-04T16:42:38.804Z,99134.69
2022-11-04T16:45:05.584Z,99140.09
2022-11-04T16:47:32.073Z,99141.44
2022-11-04T16:50:01.752Z,99148.47
2022-11-04T16:52:28.185Z,99150.06
2022-11-04T16:54:57.570Z,99151.88
2022-11-04T16:57:24.137Z,99151.97
2022-11-04T16:59:50.454Z,99158.34
2022-11-04T17:02:22.984Z,99156.44
2022-11-04T17:04:49.647Z,99163.16
2022-11-04T17:07:16.335Z,99168.31
2022-11-04T17:09:43.005Z,99167.34
2022-11-04T17:12:10.012Z,99173.97
2022-11-04T17:14:36.831Z,99177.31
2022-11-04T17:17:04.047Z,99177.22
2022-11-04T17:19:34.896Z,99181.66
2022-11-04T17:22:02.875Z,99181.53
2022-11-04T17:24:29.725Z,99187.53
2022-11-04T17:26:56.365Z,99197.03
2022-11-04T17:29:22.986Z,99191.63
2022-11-04T17:31:49.877Z,99201.97
2022-11-04T17:34:16.606Z,99203.53
2022-11-04T17:36:43.301Z,99212.16
2022-11-04T17:39:10.077Z,99213.72
2022-11-04T17:41:55.414Z,99221.44
2022-11-04T17:44:22.186Z,99227.44
2022-11-04T17:46:49.050Z,99228.16
2022-11-04T17:49:22.934Z,99235.00
2022-11-04T17:51:50.548Z,99235.13
2022-11-04T17:54:17.335Z,99236.69
2022-11-04T17:59:36.615Z,99241.03
2022-11-04T18:02:03.723Z,99243.69
2022-11-04T18:04:30.662Z,99241.84
2022-11-04T18:07:02.577Z,99247.16
2022-11-04T18:09:30.244Z,99250.53
2022-11-04T18:12:15.645Z,99247.88
2022-11-04T18:14:42.239Z,99251.22
2022-11-04T18:17:08.933Z,99253.03
2022-11-04T18:19:35.871Z,99254.75
2022-11-04T18:22:02.476Z,99254.47
2022-11-04T18:24:29.302Z,99259.50
2022-11-04T18:26:58.831Z,99265.66
2022-11-04T18:29:25.578Z,99257.94
2022-11-04T18:31:52.197Z,99268.53
2022-11-04T18:34:19.506Z,99268.53
2022-11-04T18:36:47.278Z,99261.59
2022-11-04T18:39:17.413Z,99258.34
2022-11-04T18:41:44.171Z,99268.22
2022-11-04T18:44:15.287Z,99269.06
2022-11-04T18:46:42.078Z,99264.59
2022-11-04T18:49:09.275Z,99274.59
2022-11-04T18:51:35.902Z,99279.19
2022-11-04T18:54:06.014Z,99279.56
2022-11-04T18:56:32.788Z,99288.34
2022-11-04T18:58:59.455Z,99286.78
2022-11-04T19:01:27.671Z,99295.66
2022-11-04T19:03:56.733Z,99294.13
2022-11-04T19:06:26.731Z,99308.44
2022-11-04T19:08:57.151Z,99306.41
2022-11-04T19:11:30.499Z,99309.78
2022-11-04T19:13:58.199Z,99312.41
2022-11-04T19:16:25.444Z,99317.59
2022-11-04T19:18:53.508Z,99310.38
2022-11-04T19:21:21.294Z,99322.75
2022-11-04T19:23:47.990Z,99321.78
2022-11-04T19:26:19.214Z,99322.75
2022-11-04T19:28:48.642Z,99317.72
2022-11-04T19:31:17.291Z,99323.72
2022-11-04T19:33:44.015Z,99332.53
2022-11-04T19:36:11.349Z,99329.00
2022-11-04T19:38:38.178Z,99336.72
2022-11-04T19:41:05.969Z,99342.03
2022-11-04T19:43:32.711Z,99347.44
2022-11-04T19:53:12.175Z,99352.63
2022-11-04T19:55:38.973Z,99350.94
2022-11-04T19:58:05.682Z,99361.50
2022-11-04T20:00:32.300Z,99363.22
2022-11-04T20:02:59.003Z,99364.78
2022-11-04T20:05:26.087Z,99368.38
2022-11-04T20:07:54.896Z,99372.72
2022-11-04T20:10:22.943Z,99369.94
2022-11-04T20:13:08.721Z,99374.53
2022-11-04T20:15:38.726Z,99378.00
2022-11-04T20:18:08.167Z,99383.31
2022-11-04T20:20:37.278Z,99384.03
2022-11-04T20:23:05.007Z,99390.16
2022-11-04T20:25:31.687Z,99396.41
2022-11-04T20:54:15.095Z,99441.91
2022-11-04T20:56:45.397Z,99443.75
2022-11-04T20:59:13.126Z,99441.44
2022-11-04T21:01:40.722Z,99440.47
2022-11-04T21:04:08.734Z,99445.91
2022-11-04T21:18:24.746Z,99469.97
2022-11-04T21:20:54.489Z,99471.78
2022-11-04T21:23:21.320Z,99470.91
2022-11-04T22:16:38.840Z,99516.41
2022-11-04T22:19:06.807Z,99520.25
2022-11-04T22:21:33.610Z,99527.34
2022-11-04T22:24:29.665Z,99519.53
2022-11-04T22:26:56.409Z,99516.88
2022-11-04T22:29:23.002Z,99520.97
2022-11-04T22:31:49.603Z,99519.19
2022-11-04T22:34:16.357Z,99521.84
2022-11-04T22:36:42.890Z,99526.25
2022-11-04T22:39:16.699Z,99528.09
2022-11-04T22:41:43.918Z,99523.63
2022-11-04T22:44:10.561Z,99524.47
2022-11-04T23:25:13.450Z,99558.66
2022-11-04T23:34:53.039Z,99567.78
2022-11-04T23:37:19.647Z,99570.44
2022-11-04T23:39:47.174Z,99565.16
2022-11-04T23:42:40.595Z,99565.34
2022-11-04T23:45:25.775Z,99569.59
2022-11-04T23:48:16.374Z,99572.00
2022-11-04T23:51:01.720Z,99576.22
2022-11-04T23:53:47.814Z,99583.31
2022-11-04T23:56:33.731Z,99584.75
2022-11-04T23:59:19.027Z,99586.66
